Terminal Aerodrome Forecast
Issued by NWS

Home | Current Version | Previous Version | Text Only | Print | Product List | Glossary On
Versions: 1 2 3 4 5 6 7 8 9 10 11 12 13 14 15
000
FTUS42 KTBW 212000 AAA
TAFPIE
TAF AMD
KPIE 212058Z 2121/2218 18007KT 6SM SHRA VCTS BKN060CB OVC150
     FM220200 16005KT 6SM SHRA BKN040 OVC100
     FM220900 16008KT 5SM SHRA BKN030 OVC070
     FM221400 17010KT P6SM VCSH SCT025 BKN040=

USA.gov is the U.S. government's official web portal to all federal, state and local government web resources and services.